Hatsu Ethic — VQFS4 — position and weather

sailwx.info

Track history (hours):
 
Tides and Currents Weather Stations Pressure Air Temp Water Temp Dewpoint Dewpoint Depression Visibility Wind Speed Wind Dir Waves Ship Positions

Hatsu Ethic

Last reported at 2014-Dec-21 21:15 UTC. Time now 2014-Dec-21 22:15 UTC.
Position N 22°10' E 114°10'.

Type: Ship (hazmat cat D). MMSI: 235603000.

Date/timePositionNaut miles runAvg speedWind from/ knotsBaromVisibWave heightAir tempDewpointWater temp
2014-Dec-21 21:15N 22°10' E 114°10'0 0.0
2014-Dec-21 20:30N 22°10' E 114°10'0 0.0
2014-Dec-21 19:33N 22°10' E 114°10'0 0.0
2014-Dec-21 14:30N 22°10' E 114°10'0 0.0
2014-Dec-21 12:27N 22°10' E 114°10'0 0.1
2014-Dec-21 11:28N 22°10' E 114°10'8 8.6
2014-Dec-21 10:33N 22°08' E 114°18'1312.5
2014-Dec-21 09:33N 22°17' E 114°29'2110.5
2014-Dec-21 07:32N 22°34' E 114°16'0 0.1
2014-Dec-21 06:14N 22°34' E 114°16'0 0.0
2014-Dec-21 05:12N 22°34' E 114°16'0 0.0
2014-Dec-21 04:30N 22°34' E 114°16'0 0.0
2014-Dec-21 02:30N 22°34' E 114°16'0 0.0
2014-Dec-21 01:24N 22°34' E 114°16'0 0.0
2014-Dec-21 00:30N 22°34' E 114°16'0 0.0
2014-Dec-20 23:30N 22°34' E 114°16'0 0.0
2014-Dec-20 22:30N 22°34' E 114°16'0 0.0
2014-Dec-20 21:30N 22°34' E 114°16'0 0.0
2014-Dec-20 20:24N 22°34' E 114°16'0 0.0
2014-Dec-20 18:24N 22°34' E 114°16'0 0.0
2014-Dec-20 17:12N 22°34' E 114°16'0 0.0
2014-Dec-20 16:24N 22°34' E 114°16'0 0.0
2014-Dec-20 15:18N 22°34' E 114°16'0 0.1
2014-Dec-20 13:33N 22°34' E 114°16'21 6.8
2014-Dec-20 10:32N 22°18' E 114°30'1919.2
2014-Dec-20 09:33N 22°00' E 114°26'  
2014-Dec-16 22:33N 01°16' E 104°12'1514.9
2014-Dec-16 21:33N 01°14' E 103°57'1211.6
2014-Dec-16 20:33N 01°09' E 103°47'68 2.7
2014-Dec-15 19:29N 01°39' E 102°46'1414.8
2014-Dec-15 18:31N 01°45' E 102°33'1615.1
2014-Dec-15 17:27N 01°52' E 102°18'  
Track history (hours):
 
Tides and Currents Weather Stations Pressure Air Temp Water Temp Dewpoint Dewpoint Depression Visibility Wind Speed Wind Dir Waves Ship Positions

Hatsu Ethic

Last reported at 2014-Dec-21 21:15 UTC. Time now 2014-Dec-21 22:15 UTC.
Position N 22°10' E 114°10'.

Type: Ship (hazmat cat D). MMSI: 235603000.

Date/timePositionNaut miles runAvg speedWind from/ knotsBaromVisibWave heightAir tempDewpointWater temp
2014-Dec-21 21:15N 22°10' E 114°10'0 0.0
2014-Dec-21 20:30N 22°10' E 114°10'0 0.0
2014-Dec-21 19:33N 22°10' E 114°10'0 0.0
2014-Dec-21 14:30N 22°10' E 114°10'0 0.0
2014-Dec-21 12:27N 22°10' E 114°10'0 0.1
2014-Dec-21 11:28N 22°10' E 114°10'8 8.6
2014-Dec-21 10:33N 22°08' E 114°18'1312.5
2014-Dec-21 09:33N 22°17' E 114°29'2110.5
2014-Dec-21 07:32N 22°34' E 114°16'0 0.1
2014-Dec-21 06:14N 22°34' E 114°16'0 0.0
2014-Dec-21 05:12N 22°34' E 114°16'0 0.0
2014-Dec-21 04:30N 22°34' E 114°16'0 0.0
2014-Dec-21 02:30N 22°34' E 114°16'0 0.0
2014-Dec-21 01:24N 22°34' E 114°16'0 0.0
2014-Dec-21 00:30N 22°34' E 114°16'0 0.0
2014-Dec-20 23:30N 22°34' E 114°16'0 0.0
2014-Dec-20 22:30N 22°34' E 114°16'0 0.0
2014-Dec-20 21:30N 22°34' E 114°16'0 0.0
2014-Dec-20 20:24N 22°34' E 114°16'0 0.0
2014-Dec-20 18:24N 22°34' E 114°16'0 0.0
2014-Dec-20 17:12N 22°34' E 114°16'0 0.0
2014-Dec-20 16:24N 22°34' E 114°16'0 0.0
2014-Dec-20 15:18N 22°34' E 114°16'0 0.1
2014-Dec-20 13:33N 22°34' E 114°16'21 6.8
2014-Dec-20 10:32N 22°18' E 114°30'1919.2
2014-Dec-20 09:33N 22°00' E 114°26'  
2014-Dec-16 22:33N 01°16' E 104°12'1514.9
2014-Dec-16 21:33N 01°14' E 103°57'1211.6
2014-Dec-16 20:33N 01°09' E 103°47'68 2.7
2014-Dec-15 19:29N 01°39' E 102°46'1414.8
2014-Dec-15 18:31N 01°45' E 102°33'1615.1
2014-Dec-15 17:27N 01°52' E 102°18'  

Dump ship's entire track history